Hillsborough, NJ (08844)

10:48 AM EDT on July 26, 2016 (GMT -0400)
Willows Edge | | Change Station

Elev 80 ft 40.48 °N, 74.62 °W | Updated 60 seconds ago

Clear
Clear
82.8 °F
Feels Like 88 °F
N
0.9
Wind Variable Wind from NW
Gusts 2.0 mph

Today
High -- | Low -- °F
--% Chance of Precip.
Yesterday
High -- | Low -- °F
Precip. -- in
Pressure 29.92 in
Visibility 10.0 miles
Clouds Clear
Heat Index 88 °F
Dew Point 72 °F
Humidity 69%
Rainfall 0.00 in
Snow Depth Not available.
5:50 AM 8:18 PM
Waning Gibbous, 54% visible
METAR KSMQ 261353Z AUTO VRB03KT 10SM CLR 28/22 A2992 RMK AO2 SLP130 T02780217
Pressure 29.92 in
Visibility 10.0 miles
Clouds Clear
Heat Index 88 °F
Dew Point 72 °F
Humidity 69%
Rainfall 0.00 in
Snow Depth Not available.
5:50 AM 8:18 PM
Waning Gibbous, 54% visible
METAR KSMQ 261353Z AUTO VRB03KT 10SM CLR 28/22 A2992 RMK AO2 SLP130 T02780217

10-Day Weather Forecast

Almanac

Astronomy

Jul. 26, 2016 Rise Set
Actual Time
Civil Twilight
Nautical Twilight
Astronomical Twilight
Moon
Length of Visible Light
Length of Day
Tomorrow will be .
, % of the Moon is Illuminated

Today's Extremes

State Highs State Lows

Community

WunderPhotos

Upload Photos

1,927,594 photos uploaded!

WunderBlog® & News

Nearby

Air Quality

  Air Quality AQ Index Pollutant
Not available.

Snow Depth

Station Depth Elevation

Earthquake Activity

City Distance Mag. Time & Date
Minimum magnitude displayed is 2.5.

Coastal Water Temperatures

Place Temperature

Stations

Nearby Weather Stations

Station Location Temp. Windchill Dew Point Humidity Wind Precip. Elev Updated Type
                   

Watches & Warnings

There are currently no watches in effect.